Airfield :
LOGIN :

Register | Disclaimer

   EN    FR    IT 

 










Legend :    VFR   Marginal VFR   IFR   Intensive IFR   Very Intensive IFR
Visi :
Ceiling :
>= 8 km
>= 3000ft
5 to 8 km
1000 to 3000 ft
1500m to 5 km
500 to 1000 ft
800 to 1500m
200 to 500 ft
< 800m
< 200 ft
Symbols :   Thunderstorms  Fog  Heavy snow  Heavy precipitations  Wind > 20 kt
SIGMETs :     Misc.  Thunderstorms  Icing  Turbulence  Mountain Waves  Volcanic Ashes






- Airport Elevation : 47 ft
- IATA code : BDS


LIBR - Casale Arpt. Brindisi

CURRENT METAR :
  • 270750Z 17010KT 9999 FEW040 24/17 Q1016

EXPIRED METARs :
  • 270720Z 33005KT 300V030 CAVOK 24/18 Q1017
  • 270650Z 26004KT CAVOK 22/16 Q1018
  • 270620Z 20004KT 180V240 CAVOK 21/20 Q1017
  • 270550Z 17003KT CAVOK 20/19 Q1017
  • 270520Z 23004KT CAVOK 18/17 Q1017

TAF TAF LIBR
Valid from the 27 at 06:00 until the 28 at 06:00 UTC


270500Z 2706/2806 VRB05KT 9999 FEW040
BECMG 2708/2710 06012KT
TEMPO 2709/2712 RA
BECMG 2716/2718 VRB05KT



MET'MAP, your aeronautical weather chart ! - Copyright ORBIFLY December 2007 - Disclaimer

ORBIFLY MET'MAP TEAM :

Programming & Development : Alexandra Zaïnal
Concept & original design : Baudouin d'Aumeries
Assistance for programming : Marc-Olivier Méhu
Technical & hardware support : Manuel Goepfert

Contact : metmap@orbifly.com




SOURCES & CREDITS :

   NOAA